Soderhamn

ESCL · Gävleborg, Schweden

METAR-Geschichte ESCL · Soderhamn

Unten siehst du die METARs der letzten paar Tage. Wähle ein Jahr, um ältere METARs ab dem Jahr 2007 zu durchsuchen.

15. Juli 2024

Uhrzeit Code Wetter Temp. Sichtweite Wolkendecke Wind METAR/SPECI
03:50
M
14 °C 10 km+ 1.600 ft 180° 180° 5 kt METAR ESSD 150150Z AUTO 18005KT 9999 SCT010/// BKN016/// OVC092/// 14/13 Q1011
03:20
M
15 °C 10 km+ 1.000 ft 190° 190° 6 kt METAR ESSD 150120Z AUTO 19006KT 9999 OVC010/// 15/13 Q1011
02:50
V
15 °C 10 km+ 5.500 ft 190° 190° 5 kt METAR ESSD 150050Z AUTO 19005KT 9999 FEW010/// OVC055/// 15/14 Q1010
02:20
V
15 °C 10 km+ 5.900 ft 190° 190° 4 kt METAR ESSD 150020Z AUTO 19004KT 9999 BKN059/// OVC068/// 15/14 Q1010
01:50
V
15 °C 10 km+ 6.100 ft 190° 190° 6 kt METAR ESSD 142350Z AUTO 19006KT 9999 FEW010/// SCT013/// OVC061/// 15/14 Q1010
01:20
V
15 °C 10 km+ 6.600 ft 190° 190° 6 kt METAR ESSD 142320Z AUTO 19006KT 9999 SCT015/// OVC066/// 15/14 Q1010
00:50
M
16 °C 10 km+ 1.500 ft 180° 180° 5 kt METAR ESSD 142250Z AUTO 18005KT 140V200 9999 BKN015/// OVC068/// 16/14 Q1010
00:20
M
15 °C 10 km+ 1.300 ft 190° 190° 5 kt METAR ESSD 142220Z AUTO 19005KT 150V220 9999 BKN013/// OVC016/// 15/14 Q1009

14. Juli 2024

Uhrzeit Code Wetter Temp. Sichtweite Wolkendecke Wind METAR/SPECI
23:50
V
16 °C 10 km+ 7.000 ft Var Var 3 kt METAR ESSD 142150Z AUTO VRB03KT 9999 SCT017/// OVC070/// 16/14 Q1009
23:20
V
16 °C 10 km+ 6.600 ft Var Var 2 kt METAR ESSD 142120Z AUTO VRB02KT 9999 OVC066/// 16/14 Q1009
22:50
V
16 °C 10 km+ 6.200 ft 180° 180° 7 kt METAR ESSD 142050Z AUTO 18007KT 150V220 9999 OVC062/// 16/14 Q1009
22:20
V
16 °C 10 km+ 6.400 ft 190° 190° 4 kt METAR ESSD 142020Z AUTO 19004KT 140V230 9999 OVC064/// 16/15 Q1009
21:50
V
17 °C 10 km+ 6.400 ft 190° 190° 4 kt METAR ESSD 141950Z AUTO 19004KT 9999 OVC064/// 17/15 Q1008
21:20
V
17 °C 10 km+ 5.900 ft 160° 160° 4 kt METAR ESSD 141920Z AUTO 16004KT 140V200 9999 OVC059/// 17/15 Q1008
20:50
V
17 °C 10 km+ 5.900 ft 180° 180° 3 kt METAR ESSD 141850Z AUTO 18003KT 9999 SCT028/// OVC059/// 17/15 Q1008
20:20
M
18 °C 10 km+ 2.500 ft 190° 190° 5 kt METAR ESSD 141820Z AUTO 19005KT 9999 BKN025/// OVC057/// 18/15 Q1008
19:50
M
18 °C 10 km+ 2.500 ft 170° 170° 3 kt METAR ESSD 141750Z AUTO 17003KT 9999 BKN025/// 18/15 Q1007
19:20
V
18 °C 10 km+ - 190° 190° 5 kt METAR ESSD 141720Z AUTO 19005KT 160V220 9999 SCT051/// 18/15 Q1007
18:50
V
17 °C 10 km+ 4.600 ft 180° 180° 5 kt METAR ESSD 141650Z AUTO 18005KT 9999 SCT024/// OVC046/// 17/16 Q1007
18:20
M
17 °C 10 km+ 2.700 ft 190° 190° 7 kt METAR ESSD 141620Z AUTO 19007KT 160V220 9999 -RA BKN027/// OVC044/// 17/15 Q1007
17:50
V
18 °C 10 km+ 4.200 ft 190° 190° 7 kt METAR ESSD 141550Z AUTO 19007KT 160V220 9999 FEW012/// SCT017/// OVC042/// 18/16 Q1006
17:20
M
17 °C 10 km+ 1.800 ft 200° 200° 9 kt METAR ESSD 141520Z 20009KT 9999 SCT012 OVC018 17/15 Q1006
16:50
M
17 °C 10 km+ 1.600 ft 200° 200° 9 kt METAR ESSD 141450Z 20009KT 9999 SCT011 BKN016 OVC020 17/16 Q1006
16:20
M
18 °C 10 km+ 2.000 ft 210° 210° 6 kt METAR ESSD 141420Z 21006KT 180V260 9999 FEW011 BKN020 OVC042 18/16 Q1005
15:50
V
18 °C 10 km+ 4.000 ft 220° 220° 7 kt METAR ESSD 141350Z AUTO 22007KT 170V250 9999 FEW010/// SCT021/// BKN040/// 18/16 Q1005
15:20
I
17 °C 6 km 500 ft 160° 160° 8 kt METAR ESSD 141320Z AUTO 16008KT 120V200 6000 -RA BKN005/// BKN015/// OVC027/// 17/17 Q1005
14:50
L
18 °C 3,5 km 400 ft 080° 080° 6 kt METAR ESSD 141250Z AUTO 08006KT 3500 DZ BKN004/// OVC010/// 18/17 Q1004
14:20
I
17 °C 4 km 600 ft 080° 080° 6 kt METAR ESSD 141220Z AUTO 08006KT 4000 DZ VV006 17/17 Q1004
13:50
I
17 °C 2,5 km 500 ft 070° 070° 6 kt METAR ESSD 141150Z 07006KT 2500 -DZ VV005 17/17 Q1004
13:20
I
17 °C 2,9 km 600 ft 070° 070° 6 kt METAR ESSD 141120Z 07006KT 2900 BR VV006 17/16 Q1004 REDZ
12:50
I
17 °C 3,3 km 900 ft 080° 080° 7 kt METAR ESSD 141050Z 08007KT 3300 BR VV009 17/16 Q1004
12:20
I
17 °C 3,6 km 1.000 ft 070° 070° 5 kt METAR ESSD 141020Z 07005KT 030V100 3600 BR VV010 17/16 Q1004
11:50
I
17 °C 3,3 km 1.000 ft 050° 050° 5 kt METAR ESSD 140950Z AUTO 05005KT 020V080 3300 DZ SCT007/// BKN010/// BKN015/// 17/16 Q1004
11:20
M
17 °C 10 km+ 1.000 ft 040° 040° 6 kt METAR ESSD 140920Z AUTO 04006KT 010V070 9999 FEW007/// BKN010/// BKN013/// 17/17 Q1004 REDZ
10:50
I
17 °C 4,6 km 800 ft 050° 050° 6 kt METAR ESSD 140850Z AUTO 05006KT 020V100 4600 -DZ SCT004/// BKN008/// OVC011/// 17/16 Q1004
10:20
I
16 °C 3,6 km 600 ft 050° 050° 6 kt METAR ESSD 140820Z AUTO 05006KT 010V090 3600 DZ BKN006/// OVC011/// 16/16 Q1004
09:50
I
16 °C 6 km 600 ft 030° 030° 6 kt METAR ESSD 140750Z AUTO 03006KT 350V050 6000 DZ BKN006/// OVC009/// 16/15 Q1004
09:20
I
16 °C 10 km+ 800 ft 030° 030° 7 kt METAR ESSD 140720Z AUTO 03007KT 9999 DZ BKN008/// OVC011/// 16/15 Q1004 RERA
08:50
I
16 °C 10 km+ 700 ft 030° 030° 6 kt METAR ESSD 140650Z AUTO 03006KT 9999 -RA OVC007/// 16/15 Q1005
08:20
I
16 °C 10 km+ 600 ft 040° 040° 7 kt METAR ESSD 140620Z AUTO 04007KT 010V080 9999 RA FEW003/// OVC006/// 16/15 Q1005
07:50
I
16 °C 10 km+ 700 ft 010° 010° 8 kt METAR ESSD 140550Z AUTO 01008KT 9999 DZ OVC007/// 16/15 Q1005
07:20
I
15 °C 10 km+ 500 ft 010° 010° 8 kt METAR ESSD 140520Z AUTO 01008KT 9999 -RA BKN005/// OVC008/// 15/15 Q1005
06:50
I
15 °C 9 km 700 ft 030° 030° 7 kt METAR ESSD 140450Z AUTO 03007KT 9000 RA BKN007/// OVC008/// 15/14 Q1006
06:20
I
15 °C 10 km+ 800 ft 020° 020° 7 kt METAR ESSD 140420Z AUTO 02007KT 350V050 9999 -RA OVC008/// 15/14 Q1006
05:50
I
15 °C 10 km+ 800 ft 360° 360° 9 kt METAR ESSD 140350Z AUTO 36009KT 330V030 9999 -RA OVC008/// 15/14 Q1006 RERA
05:20
I
15 °C 9 km 600 ft 010° 010° 6 kt METAR ESSD 140320Z AUTO 01006KT 340V040 9000 -RA BKN006/// OVC009/// 15/14 Q1007
04:50
M
15 °C 10 km+ 1.200 ft 010° 010° 6 kt METAR ESSD 140250Z AUTO 01006KT 9999 RA FEW005/// BKN012/// BKN038/// 15/13 Q1007 RESHRA
04:20
V
15 °C 10 km+ 5.300 ft 340° 340° 6 kt METAR ESSD 140220Z AUTO 34006KT 9999 RA FEW017/// SCT036/// BKN053/// 15/13 Q1007
03:50
V
15 °C 10 km+ 5.900 ft 330° 330° 5 kt METAR ESSD 140150Z AUTO 33005KT 9999 -RA SCT019/// BKN059/// OVC092/// 15/13 Q1008 RERA
03:20
V
15 °C 10 km+ 9.600 ft 320° 320° 6 kt METAR ESSD 140120Z AUTO 32006KT 9999 FEW021/// SCT042/// OVC096/// 15/13 Q1008
02:50
V
15 °C 10 km+ 9.400 ft 330° 330° 4 kt METAR ESSD 140050Z AUTO 33004KT 9999 RA FEW039/// OVC094/// 15/13 Q1009
02:20
V
16 °C 10 km+ 9.600 ft 020° 020° 5 kt METAR ESSD 140020Z AUTO 02005KT 350V050 9999 -RA FEW053/// OVC096/// 16/13 Q1009
01:50
V
16 °C 10 km+ 10.000 ft 020° 020° 4 kt METAR ESSD 132350Z AUTO 02004KT 330V070 9999 FEW025/// OVC100/// 16/12 Q1010
01:20
V
17 °C 10 km+ 11.000 ft 030° 030° 7 kt METAR ESSD 132320Z AUTO 03007KT 360V060 9999 BKN110/// OVC140/// 17/12 Q1010
00:50
V
16 °C 10 km+ 11.000 ft 010° 010° 5 kt METAR ESSD 132250Z AUTO 01005KT 340V040 9999 BKN110/// OVC150/// 16/12 Q1010
00:20
V
17 °C 10 km+ 13.000 ft 010° 010° 5 kt METAR ESSD 132220Z AUTO 01005KT 340V040 9999 OVC130/// 17/12 Q1010

13. Juli 2024

Uhrzeit Code Wetter Temp. Sichtweite Wolkendecke Wind METAR/SPECI
23:50
V
17 °C 10 km+ 14.000 ft 030° 030° 7 kt METAR ESSD 132150Z AUTO 03007KT 360V060 9999 OVC140/// 17/12 Q1010
23:20
V
17 °C 10 km+ 15.000 ft 030° 030° 5 kt METAR ESSD 132120Z AUTO 03005KT 9999 OVC150/// 17/13 Q1011
22:50
V
18 °C 10 km+ 17.000 ft 050° 050° 6 kt METAR ESSD 132050Z AUTO 05006KT 030V090 9999 SCT026/// OVC170/// 18/12 Q1011
22:20
V
18 °C 10 km+ 18.000 ft 040° 040° 6 kt METAR ESSD 132020Z AUTO 04006KT 9999 BKN180/// 18/12 Q1011
21:50
V
18 °C 10 km+ 19.000 ft 060° 060° 6 kt METAR ESSD 131950Z AUTO 06006KT 9999 OVC190/// 18/12 Q1011
21:20
V
19 °C 10 km+ - 060° 060° 6 kt METAR ESSD 131920Z AUTO 06006KT 9999 SCT200/// 19/12 Q1012
20:50
V
19 °C 10 km+ - 080° 080° 10 kt METAR ESSD 131850Z AUTO 08010KT 9999 SCT038/// 19/12 Q1012
20:20
V
20 °C 10 km+ - 060° 060° 8 kt METAR ESSD 131820Z AUTO 06008KT 030V090 9999 NCD 20/12 Q1012
19:50
V
20 °C 10 km+ - 060° 060° 6 kt METAR ESSD 131750Z AUTO 06006KT 9999 NCD 20/13 Q1011
19:20
V
21 °C 10 km+ - 080° 080° 8 kt METAR ESSD 131720Z AUTO 08008KT 9999 NCD 21/13 Q1012
18:50
V
21 °C 10 km+ - 080° 080° 7 kt METAR ESSD 131650Z AUTO 08007KT 9999 FEW066/// 21/12 Q1012
18:20
V
22 °C 10 km+ - 070° 070° 8 kt METAR ESSD 131620Z AUTO 07008KT 040V100 9999 FEW048/// 22/12 Q1012
17:50
V
22 °C 10 km+ - 060° 060° 8 kt METAR ESSD 131550Z AUTO 06008KT 030V090 9999 SCT049/// 22/12 Q1012
17:20
V
23 °C 10 km+ - 060° 060° 7 kt METAR ESSD 131520Z AUTO 06007KT 360V090 9999 FEW190/// 23/12 Q1012
16:50
V
23 °C 10 km+ - 070° 070° 6 kt METAR ESSD 131450Z AUTO 07006KT 020V100 9999 FEW190/// 23/12 Q1012
16:20
V
22 °C 10 km+ - 040° 040° 7 kt METAR ESSD 131420Z AUTO 04007KT 010V070 9999 FEW072/// SCT190/// 22/12 Q1013
15:50
V
22 °C 10 km+ 6.800 ft 050° 050° 9 kt METAR ESSD 131350Z AUTO 05009KT 9999 SCT049/// BKN068/// BKN170/// 22/12 Q1013
15:20
V
23 °C 10 km+ 5.100 ft 070° 070° 8 kt METAR ESSD 131320Z AUTO 07008KT 030V110 9999 BKN051/// OVC072/// 23/12 Q1013
14:50
V
23 °C 10 km+ 6.800 ft 060° 060° 6 kt METAR ESSD 131250Z AUTO 06006KT 020V110 9999 SCT055/// BKN068/// 23/12 Q1013
14:20
V
24 °C 10 km+ 6.600 ft 080° 080° 5 kt METAR ESSD 131220Z AUTO 08005KT 050V120 9999 SCT053/// BKN066/// 24/11 Q1014
13:50
V
24 °C 10 km+ 5.500 ft 070° 070° 7 kt METAR ESSD 131150Z AUTO 07007KT 010V100 9999 BKN055/// 24/11 Q1014
13:20
V
24 °C 10 km+ 5.300 ft 050° 050° 8 kt METAR ESSD 131120Z AUTO 05008KT 010V080 9999 BKN053/// 24/12 Q1014
12:50
V
23 °C 10 km+ - 020° 020° 8 kt METAR ESSD 131050Z AUTO 02008KT 9999 FEW057/// 23/11 Q1014
12:20
V
23 °C 10 km+ - 010° 010° 7 kt METAR ESSD 131020Z AUTO 01007KT 340V050 9999 NCD 23/12 Q1014
11:50
V
22 °C 10 km+ - 020° 020° 5 kt METAR ESSD 130950Z AUTO 02005KT 350V080 9999 NCD 22/11 Q1015
11:20
V
22 °C 10 km+ - 020° 020° 7 kt METAR ESSD 130920Z AUTO 02007KT 9999 FEW190/// 22/11 Q1015
10:50
V
21 °C 10 km+ - 020° 020° 7 kt METAR ESSD 130850Z AUTO 02007KT 9999 NCD 21/13 Q1015
10:20
V
21 °C 10 km+ - 040° 040° 6 kt METAR ESSD 130820Z AUTO 04006KT 360V070 9999 NCD 21/14 Q1015
09:50
V
20 °C 10 km+ - 040° 040° 4 kt METAR ESSD 130750Z AUTO 04004KT 350V080 9999 NCD 20/13 Q1015
09:20
V
20 °C 10 km+ - 040° 040° 5 kt METAR ESSD 130720Z AUTO 04005KT 360V080 9999 NCD 20/14 Q1015
08:50
V
19 °C 10 km+ - 010° 010° 4 kt METAR ESSD 130650Z AUTO 01004KT 340V050 9999 NCD 19/13 Q1016
08:20
V
19 °C 10 km+ - Var Var 3 kt METAR ESSD 130620Z AUTO VRB03KT 9999 NCD 19/14 Q1016
07:50
V
18 °C 10 km+ - 010° 010° 3 kt METAR ESSD 130550Z AUTO 01003KT 340V060 9999 NCD 18/14 Q1016
07:20
V
17 °C 10 km+ - 350° 350° 3 kt METAR ESSD 130520Z AUTO 35003KT 320V020 9999 NCD 17/15 Q1016
06:50
V
16 °C 10 km+ - 360° 360° 0 kt METAR ESSD 130450Z AUTO 00000KT 9999 FEW003/// 16/15 Q1016
06:20
L
15 °C 10 km+ 300 ft 360° 360° 0 kt METAR ESSD 130420Z AUTO 00000KT 9999 BKN003/// 15/14 Q1016
05:50
L
14 °C 10 km+ 200 ft 250° 250° 2 kt METAR ESSD 130350Z AUTO 25002KT 9999 OVC002/// 14/13 Q1016
05:20
L
13 °C 10 km+ 200 ft 250° 250° 3 kt METAR ESSD 130320Z AUTO 25003KT 9999 OVC002/// 13/12 Q1015
04:50
L
12 °C 10 km+ 300 ft 240° 240° 2 kt METAR ESSD 130250Z AUTO 24002KT 9999 BKN003/// 12/11 Q1016
04:20
V
12 °C 10 km+ - 280° 280° 3 kt METAR ESSD 130220Z AUTO 28003KT 9999 FEW003/// 12/11 Q1016
03:50
V
12 °C 10 km+ - 260° 260° 3 kt METAR ESSD 130150Z AUTO 26003KT 9999 FEW002/// SCT004/// 12/11 Q1015
03:20
V
12 °C 10 km+ - 290° 290° 2 kt METAR ESSD 130120Z AUTO 29002KT 9999 NCD 12/12 Q1015
02:50
V
12 °C 10 km+ - 250° 250° 4 kt METAR ESSD 130050Z AUTO 25004KT 9999 NCD 12/12 Q1015
02:20
V
13 °C 10 km+ - 310° 310° 3 kt METAR ESSD 130020Z AUTO 31003KT 9999 NCD 13/12 Q1015
01:50
V
13 °C 10 km+ - 250° 250° 3 kt METAR ESSD 122350Z AUTO 25003KT 9999 NCD 13/13 Q1016
01:20
V
14 °C 10 km+ - 250° 250° 3 kt METAR ESSD 122320Z AUTO 25003KT 9999 NCD 14/13 Q1016
00:50
V
14 °C 10 km+ - 360° 360° 0 kt METAR ESSD 122250Z AUTO 00000KT 9999 NCD 14/14 Q1015
00:20
V
15 °C 10 km+ - Var Var 2 kt METAR ESSD 122220Z AUTO VRB02KT 9999 NCD 15/14 Q1015

12. Juli 2024

Uhrzeit Code Wetter Temp. Sichtweite Wolkendecke Wind METAR/SPECI
23:50
V
16 °C 10 km+ - 360° 360° 0 kt METAR ESSD 122150Z AUTO 00000KT 9999 NCD 16/15 Q1015
23:20
V
16 °C 10 km+ - 360° 360° 0 kt METAR ESSD 122120Z AUTO 00000KT 9999 NCD 16/15 Q1014
22:50
V
17 °C 10 km+ - 360° 360° 0 kt METAR ESSD 122050Z AUTO 00000KT 9999 NCD 17/14 Q1014
22:20
V
18 °C 10 km+ - 360° 360° 0 kt METAR ESSD 122020Z AUTO 00000KT 9999 FEW092/// 18/14 Q1014
21:50
V
19 °C 10 km+ - 360° 360° 0 kt METAR ESSD 121950Z AUTO 00000KT 9999 SCT092/// 19/14 Q1014
21:20
V
21 °C 10 km+ 9.200 ft 320° 320° 3 kt METAR ESSD 121920Z AUTO 32003KT 9999 BKN092/// 21/14 Q1014
20:50
V
21 °C 10 km+ 9.200 ft Var Var 3 kt METAR ESSD 121850Z AUTO VRB03KT 9999 BKN092/// 21/17 Q1014
20:20
V
22 °C 10 km+ 9.000 ft 260° 260° 2 kt METAR ESSD 121820Z AUTO 26002KT 9999 OVC090/// 22/16 Q1014
19:50
V
22 °C 10 km+ 9.200 ft 360° 360° 0 kt METAR ESSD 121750Z AUTO 00000KT 9999 OVC092/// 22/14 Q1014
19:20
V
22 °C 10 km+ 9.200 ft 020° 020° 1 kt METAR ESSD 121720Z AUTO 02001KT 9999 OVC092/// 22/15 Q1014
18:50
V
22 °C 10 km+ 9.200 ft 020° 020° 2 kt METAR ESSD 121650Z AUTO 02002KT 9999 OVC092/// 22/14 Q1014
18:20
V
22 °C 10 km+ 9.200 ft Var Var 2 kt METAR ESSD 121620Z AUTO VRB02KT 9999 BKN092/// 22/13 Q1014
17:50
V
22 °C 10 km+ 9.200 ft 010° 010° 3 kt METAR ESSD 121550Z AUTO 01003KT 9999 BKN092/// 22/14 Q1014
17:20
V
22 °C 10 km+ 9.200 ft 020° 020° 4 kt METAR ESSD 121520Z AUTO 02004KT 9999 BKN092/// 22/14 Q1013
16:50
V
23 °C 10 km+ 9.200 ft 040° 040° 6 kt METAR ESSD 121450Z AUTO 04006KT 010V090 9999 SCT047/// OVC092/// 23/14 Q1013
16:20
V
23 °C 10 km+ - Var Var 3 kt METAR ESSD 121420Z VRB03KT 9999 FEW049TCU 23/13 Q1013
15:50
V
22 °C 10 km+ 9.200 ft 070° 070° 3 kt METAR ESSD 121350Z 07003KT 010V100 9999 FEW041TCU OVC092 22/14 Q1013
15:20
V
23 °C 10 km+ 4.500 ft Var Var 3 kt METAR ESSD 121320Z VRB03KT 9999 BKN045TCU 23/14 Q1013
14:50
V
22 °C 10 km+ - 020° 020° 4 kt METAR ESSD 121250Z 02004KT 350V090 9999 SCT045TCU 22/14 Q1013
14:20
V
22 °C 10 km+ 4.200 ft 300° 300° 3 kt METAR ESSD 121220Z 30003KT 250V360 9999 BKN042TCU 22/14 Q1013
13:50
V
22 °C 10 km+ - 020° 020° 5 kt METAR ESSD 121150Z 02005KT 350V060 9999 SCT040TCU 22/14 Q1013
13:20
V
23 °C 10 km+ - 090° 090° 3 kt METAR ESSD 121120Z 09003KT 040V140 9999 SCT040TCU 23/13 Q1013
12:50
V
22 °C 10 km+ - Var Var 3 kt METAR ESSD 121050Z VRB03KT 9999 FEW034TCU 22/15 Q1013
12:20
V
22 °C 10 km+ - Var Var 2 kt METAR ESSD 121020Z VRB02KT 9999 FEW028TCU 22/14 Q1013
11:50
V
21 °C 10 km+ - Var Var 3 kt METAR ESSD 120950Z VRB03KT 9999 FEW045TCU 21/15 Q1013
11:20
M
21 °C 10 km+ 2.700 ft 290° 290° 3 kt METAR ESSD 120920Z 29003KT 260V340 9999 BKN027TCU BKN040 OVC061 21/15 Q1013
10:50
V
21 °C 10 km+ - 360° 360° 0 kt METAR ESSD 120850Z 00000KT 9999 FEW021TCU 21/15 Q1013
10:20
V
20 °C 10 km+ - Var Var 3 kt METAR ESSD 120820Z VRB03KT 9999 SCT019TCU 20/15 Q1013
09:50
V
19 °C 10 km+ - 290° 290° 6 kt METAR ESSD 120750Z 29006KT 9999 FEW016 SCT110 19/16 Q1013
09:20
V
19 °C 10 km+ - 270° 270° 6 kt METAR ESSD 120720Z 27006KT 250V310 CAVOK 19/15 Q1013
08:50
V
18 °C 10 km+ - 260° 260° 6 kt METAR ESSD 120650Z 26006KT CAVOK 18/15 Q1013
08:20
V
17 °C 10 km+ - 260° 260° 5 kt METAR ESSD 120620Z 26005KT CAVOK 17/15 Q1013
07:50
V
17 °C 10 km+ - 270° 270° 6 kt METAR ESSD 120550Z 27006KT CAVOK 17/15 Q1013
Eine Änderung melden